createdAt,value
2023-01-12T00:02:38.187Z,100350.50
2023-01-12T00:07:43.198Z,100336.59
2023-01-12T00:12:46.563Z,100348.50
2023-01-12T00:17:50.295Z,100344.31
2023-01-12T00:22:55.025Z,100336.25
2023-01-12T00:27:58.568Z,100331.19
2023-01-12T00:33:01.886Z,100328.31
2023-01-12T00:38:07.449Z,100334.03
2023-01-12T00:43:28.280Z,100341.72
2023-01-12T00:48:32.101Z,100334.63
2023-01-12T00:53:36.931Z,100334.75
2023-01-12T00:58:40.492Z,100332.13
2023-01-12T01:03:43.775Z,100333.13
2023-01-12T01:08:48.782Z,100335.22
2023-01-12T01:13:52.188Z,100321.50
2023-01-12T01:18:55.885Z,100304.94
2023-01-12T01:24:01.178Z,100309.63
2023-01-12T01:29:04.844Z,100293.09
2023-01-12T01:34:08.348Z,100291.44
2023-01-12T01:39:14.159Z,100297.63
2023-01-12T01:44:54.003Z,100288.44
2023-01-12T01:50:00.620Z,100288.44
2023-01-12T01:55:10.034Z,100287.16
2023-01-12T02:00:14.430Z,100270.22
2023-01-12T02:05:22.268Z,100285.91
2023-01-12T02:10:27.508Z,100271.75
2023-01-12T02:15:54.715Z,100269.59
2023-01-12T02:21:12.104Z,100264.41
2023-01-12T02:26:51.746Z,100265.56
2023-01-12T02:32:07.611Z,100234.84
2023-01-12T02:37:19.459Z,100246.97
2023-01-12T02:42:42.893Z,100249.75
2023-01-12T02:47:53.043Z,100263.16
2023-01-12T02:53:02.865Z,100264.78
2023-01-12T02:58:08.643Z,100267.56
2023-01-12T03:03:16.277Z,100259.47
2023-01-12T03:08:24.019Z,100262.63
2023-01-12T03:13:30.720Z,100243.44
2023-01-12T03:18:39.937Z,100271.19
2023-01-12T03:23:47.613Z,100249.84
2023-01-12T03:28:56.444Z,100245.72
2023-01-12T03:34:02.229Z,100241.28
2023-01-12T03:39:16.005Z,100213.03
2023-01-12T03:44:24.622Z,100223.00
2023-01-12T03:49:36.341Z,100225.88
2023-01-12T03:54:42.809Z,100208.09
2023-01-12T03:59:46.455Z,100222.59
2023-01-12T04:04:51.701Z,100205.47
2023-01-12T04:09:55.305Z,100222.41
2023-01-12T04:14:59.074Z,100227.28
2023-01-12T04:20:04.924Z,100222.94
2023-01-12T04:25:09.882Z,100220.59
2023-01-12T04:30:14.996Z,100217.34
2023-01-12T04:35:19.927Z,100217.78
2023-01-12T04:40:23.521Z,100204.31
2023-01-12T04:45:26.970Z,100188.53
2023-01-12T04:50:32.123Z,100172.53
2023-01-12T04:55:38.064Z,100178.00
2023-01-12T05:00:41.423Z,100185.19
2023-01-12T05:05:46.250Z,100185.84
2023-01-12T05:10:51.656Z,100180.81
2023-01-12T05:15:55.189Z,100190.81
2023-01-12T05:21:00.240Z,100191.94
2023-01-12T05:26:04.740Z,100187.06
2023-01-12T05:31:09.100Z,100192.97
2023-01-12T05:36:15.642Z,100199.00
2023-01-12T05:41:19.277Z,100174.44
2023-01-12T05:46:24.943Z,100170.94
2023-01-12T05:51:31.294Z,100177.78
2023-01-12T05:56:34.957Z,100164.44
2023-01-12T06:01:38.732Z,100175.81
2023-01-12T06:06:43.872Z,100177.69
2023-01-12T06:12:10.752Z,100176.13
2023-01-12T06:17:14.375Z,100171.25
2023-01-12T06:22:19.513Z,100170.72
2023-01-12T06:27:23.155Z,100158.66
2023-01-12T06:32:26.496Z,100165.63
2023-01-12T06:37:31.572Z,100169.34
2023-01-12T06:42:37.936Z,100174.19
2023-01-12T06:47:48.178Z,100170.47
2023-01-12T06:52:53.047Z,100157.44
2023-01-12T06:57:56.689Z,100162.91
2023-01-12T07:03:00.200Z,100163.19
2023-01-12T07:08:05.533Z,100170.41
2023-01-12T07:13:08.957Z,100167.28
2023-01-12T07:18:12.578Z,100143.63
2023-01-12T07:23:17.337Z,100156.81
2023-01-12T07:28:20.935Z,100139.38
2023-01-12T07:33:24.295Z,100127.78
2023-01-12T07:38:30.359Z,100145.97
2023-01-12T07:43:33.899Z,100136.06
2023-01-12T07:48:37.509Z,100138.41
2023-01-12T07:53:42.413Z,100130.72
2023-01-12T07:58:45.984Z,100129.22
2023-01-12T08:03:49.322Z,100140.47
2023-01-12T08:08:55.932Z,100122.84
2023-01-12T08:14:01.647Z,100127.28
2023-01-12T08:19:10.971Z,100125.28
2023-01-12T08:24:18.337Z,100112.94
2023-01-12T08:29:30.476Z,100114.25
2023-01-12T08:34:35.416Z,100111.56
2023-01-12T08:39:40.610Z,100122.50
2023-01-12T08:44:44.133Z,100116.09
2023-01-12T08:49:48.049Z,100112.06
2023-01-12T08:54:52.979Z,100107.31
2023-01-12T08:59:56.347Z,100095.03
2023-01-12T09:04:59.653Z,100103.56
2023-01-12T09:10:07.405Z,100107.94
2023-01-12T09:15:11.810Z,100093.44
2023-01-12T09:20:15.849Z,100081.91
2023-01-12T09:25:20.753Z,100094.75
2023-01-12T09:30:24.066Z,100085.50
2023-01-12T09:35:27.509Z,100086.22
2023-01-12T09:40:32.657Z,100076.09
2023-01-12T09:45:53.670Z,100078.41
2023-01-12T09:51:07.642Z,100064.75
2023-01-12T09:56:19.825Z,100069.94
2023-01-12T10:01:29.799Z,100075.34
2023-01-12T10:06:34.498Z,100072.59
2023-01-12T10:11:47.716Z,100079.03
2023-01-12T10:17:05.187Z,100056.66
2023-01-12T10:22:37.031Z,100046.63
2023-01-12T10:27:45.411Z,100044.97
2023-01-12T10:32:48.820Z,100060.13
2023-01-12T10:37:55.532Z,100055.06
2023-01-12T10:43:22.463Z,100025.38
2023-01-12T10:48:27.119Z,100018.19
2023-01-12T10:53:32.832Z,100015.38
2023-01-12T10:58:37.867Z,100025.03
2023-01-12T11:03:42.360Z,100007.78
2023-01-12T11:08:45.881Z,100006.63
2023-01-12T11:13:54.769Z,99991.59
2023-01-12T11:19:14.896Z,99994.69
2023-01-12T11:24:35.126Z,99983.03
2023-01-12T11:29:46.877Z,99973.03
2023-01-12T11:34:58.280Z,99973.34
2023-01-12T11:40:07.814Z,99969.69
2023-01-12T11:45:19.012Z,99974.63
2023-01-12T11:50:27.661Z,99959.00
2023-01-12T11:55:45.314Z,99952.03
2023-01-12T12:01:02.369Z,99942.16
2023-01-12T12:06:23.257Z,99951.00
2023-01-12T12:11:36.252Z,99946.88
2023-01-12T12:16:49.257Z,99950.94
2023-01-12T12:22:01.095Z,99953.13
2023-01-12T12:27:14.085Z,99961.69
2023-01-12T12:32:32.050Z,99961.97
2023-01-12T12:38:05.167Z,99957.81
2023-01-12T12:43:34.739Z,99956.44
2023-01-12T12:48:50.607Z,99953.41
2023-01-12T12:53:56.140Z,99949.31
2023-01-12T12:59:01.869Z,99944.94
2023-01-12T13:04:09.867Z,99934.13
2023-01-12T13:09:39.438Z,99948.38
2023-01-12T13:14:44.580Z,99947.25
2023-01-12T13:19:53.293Z,99944.25
2023-01-12T13:24:57.448Z,99918.59
2023-01-12T13:30:23.264Z,99908.78
2023-01-12T13:36:05.279Z,99921.63
2023-01-12T13:41:38.414Z,99916.94
2023-01-12T13:46:47.189Z,99921.38
2023-01-12T13:51:58.712Z,99907.47
2023-01-12T13:57:04.079Z,99914.44
2023-01-12T14:02:19.197Z,99909.78
2023-01-12T14:07:36.004Z,99911.06
2023-01-12T14:13:20.875Z,99890.88
2023-01-12T14:18:26.726Z,99898.44
2023-01-12T14:23:34.026Z,99904.47
2023-01-12T14:28:38.988Z,99892.59
2023-01-12T14:33:48.441Z,99906.16
2023-01-12T14:38:54.863Z,99888.69
2023-01-12T14:44:15.468Z,99886.06
2023-01-12T14:49:22.718Z,99887.41
2023-01-12T14:54:29.639Z,99878.47
2023-01-12T14:59:35.654Z,99887.78
2023-01-12T15:04:39.038Z,99880.97
2023-01-12T15:09:54.920Z,99871.91
2023-01-12T15:15:17.591Z,99881.88
2023-01-12T15:20:43.941Z,99864.13
2023-01-12T15:25:48.722Z,99873.16
2023-01-12T15:30:53.473Z,99868.81
2023-01-12T15:35:56.789Z,99870.06
2023-01-12T15:41:01.888Z,99869.75
2023-01-12T15:46:05.642Z,99859.63
2023-01-12T15:51:11.120Z,99857.66
2023-01-12T15:56:16.783Z,99855.22
2023-01-12T16:01:21.080Z,99849.53
2023-01-12T16:06:30.328Z,99867.13
2023-01-12T16:11:35.437Z,99859.44
2023-01-12T16:16:39.368Z,99841.84
2023-01-12T16:21:43.016Z,99844.00
2023-01-12T16:26:48.104Z,99841.63
2023-01-12T16:31:52.127Z,99843.13
2023-01-12T16:36:55.773Z,99843.25
2023-01-12T16:42:03.896Z,99857.88
2023-01-12T16:47:08.381Z,99842.16
2023-01-12T16:52:15.875Z,99845.13
2023-01-12T16:57:21.010Z,99832.47
2023-01-12T17:02:24.602Z,99845.56
2023-01-12T17:07:29.471Z,99822.16
2023-01-12T17:12:35.694Z,99817.94
2023-01-12T17:17:39.793Z,99820.25
2023-01-12T17:22:43.290Z,99820.56
2023-01-12T17:27:48.738Z,99816.66
2023-01-12T17:32:52.168Z,99812.13
2023-01-12T17:37:55.847Z,99817.19
2023-01-12T17:43:08.239Z,99811.88
2023-01-12T17:48:13.534Z,99814.44
2023-01-12T17:53:18.159Z,99811.22
2023-01-12T17:58:22.902Z,99813.13
2023-01-12T18:03:26.349Z,99814.53
2023-01-12T18:08:29.997Z,99822.25
2023-01-12T18:13:36.310Z,99817.84
2023-01-12T18:18:42.459Z,99819.81
2023-01-12T18:23:46.160Z,99814.97
2023-01-12T18:28:51.201Z,99832.13
2023-01-12T18:33:59.606Z,99835.84
2023-01-12T18:39:04.381Z,99835.41
2023-01-12T18:44:10.360Z,99824.97
2023-01-12T18:49:13.950Z,99816.28
2023-01-12T18:54:17.426Z,99811.81
2023-01-12T18:59:22.797Z,99822.13
2023-01-12T19:04:37.830Z,99817.59
2023-01-12T19:09:41.423Z,99822.91
2023-01-12T19:15:03.321Z,99813.19
2023-01-12T19:20:14.718Z,99834.78
2023-01-12T19:25:37.430Z,99829.00
2023-01-12T19:30:42.495Z,99819.13
2023-01-12T19:35:47.679Z,99824.63
2023-01-12T19:40:53.885Z,99822.13
2023-01-12T19:46:02.758Z,99820.34
2023-01-12T19:51:10.411Z,99820.34
2023-01-12T19:56:14.795Z,99829.34
2023-01-12T20:01:23.259Z,99818.31
2023-01-12T20:06:26.954Z,99837.59
2023-01-12T20:11:30.565Z,99819.03
2023-01-12T20:16:35.555Z,99824.84
2023-01-12T20:21:39.647Z,99811.16
2023-01-12T20:26:43.653Z,99813.28
2023-01-12T20:31:50.502Z,99807.69
2023-01-12T20:36:54.180Z,99811.34
2023-01-12T20:41:57.951Z,99815.59
2023-01-12T20:47:03.050Z,99819.75
2023-01-12T20:52:06.698Z,99823.81
2023-01-12T20:57:11.339Z,99828.75
2023-01-12T21:02:18.640Z,99834.88
2023-01-12T21:07:22.188Z,99833.38
2023-01-12T21:12:27.490Z,99827.91
2023-01-12T21:17:32.836Z,99819.78
2023-01-12T21:22:36.161Z,99802.94
2023-01-12T21:27:39.789Z,99808.31
2023-01-12T21:32:44.534Z,99820.44
2023-01-12T21:37:48.248Z,99811.41
2023-01-12T21:43:09.760Z,99781.41
2023-01-12T21:48:16.226Z,99797.56
2023-01-12T21:53:21.781Z,99803.78
2023-01-12T21:58:25.809Z,99780.97
2023-01-12T22:03:30.917Z,99790.63
2023-01-12T22:08:36.105Z,99800.81
2023-01-12T22:13:41.127Z,99799.78
2023-01-12T22:18:49.563Z,99802.88
2023-01-12T22:23:53.075Z,99795.13
2023-01-12T22:28:56.620Z,99795.03
2023-01-12T22:34:04.054Z,99776.47
2023-01-12T22:39:07.680Z,99814.94
2023-01-12T22:44:11.458Z,99798.88
2023-01-12T22:49:16.551Z,99808.75
2023-01-12T22:54:20.496Z,99812.59
2023-01-12T22:59:23.858Z,99800.59
2023-01-12T23:04:28.783Z,99792.91
2023-01-12T23:09:32.070Z,99783.81
2023-01-12T23:14:35.483Z,99784.34
2023-01-12T23:19:40.387Z,99765.03
2023-01-12T23:24:43.793Z,99772.63
2023-01-12T23:29:48.354Z,99771.84
2023-01-12T23:34:53.086Z,99765.88
2023-01-12T23:39:56.194Z,99764.38
2023-01-12T23:44:59.632Z,99770.19
2023-01-12T23:50:04.995Z,99758.13
2023-01-12T23:55:09.390Z,99766.50
